sensor_id;sensor_type;location;lat;lon;timestamp;pressure;altitude;pressure_sealevel;temperature;humidity
13732;BME280;6937;56.096;12.664;2023-05-25T00:00:41;101584.59;;;13.31;100.00
13732;BME280;6937;56.096;12.664;2023-05-25T00:03:07;101584.25;;;13.23;100.00
13732;BME280;6937;56.096;12.664;2023-05-25T00:05:34;101593.50;;;13.19;100.00
13732;BME280;6937;56.096;12.664;2023-05-25T00:07:59;101588.22;;;13.17;100.00
13732;BME280;6937;56.096;12.664;2023-05-25T00:10:25;101584.16;;;13.12;100.00
13732;BME280;6937;56.096;12.664;2023-05-25T00:12:50;101590.03;;;13.04;100.00
13732;BME280;6937;56.096;12.664;2023-05-25T00:15:16;101585.91;;;12.98;100.00
13732;BME280;6937;56.096;12.664;2023-05-25T00:17:41;101581.00;;;12.92;100.00
13732;BME280;6937;56.096;12.664;2023-05-25T00:20:07;101581.53;;;12.85;100.00
13732;BME280;6937;56.096;12.664;2023-05-25T00:22:36;101564.66;;;12.83;100.00
13732;BME280;6937;56.096;12.664;2023-05-25T00:25:02;101564.66;;;12.83;100.00
13732;BME280;6937;56.096;12.664;2023-05-25T00:27:28;101568.41;;;12.80;100.00
13732;BME280;6937;56.096;12.664;2023-05-25T00:29:54;101561.84;;;12.72;100.00
13732;BME280;6937;56.096;12.664;2023-05-25T00:32:19;101562.72;;;12.72;100.00
13732;BME280;6937;56.096;12.664;2023-05-25T00:34:45;101569.81;;;12.73;100.00
13732;BME280;6937;56.096;12.664;2023-05-25T00:37:11;101566.81;;;12.78;100.00
13732;BME280;6937;56.096;12.664;2023-05-25T00:39:36;101575.81;;;12.77;100.00
13732;BME280;6937;56.096;12.664;2023-05-25T00:42:02;101572.28;;;12.76;100.00
13732;BME280;6937;56.096;12.664;2023-05-25T00:44:27;101570.03;;;12.70;100.00
13732;BME280;6937;56.096;12.664;2023-05-25T00:46:53;101566.34;;;12.71;100.00
13732;BME280;6937;56.096;12.664;2023-05-25T00:49:20;101565.53;;;12.71;100.00
13732;BME280;6937;56.096;12.664;2023-05-25T00:51:47;101569.03;;;12.71;100.00
13732;BME280;6937;56.096;12.664;2023-05-25T00:54:16;101551.34;;;12.69;100.00
13732;BME280;6937;56.096;12.664;2023-05-25T00:56:50;101551.47;;;12.67;100.00
13732;BME280;6937;56.096;12.664;2023-05-25T00:59:43;101560.69;;;12.63;100.00
13732;BME280;6937;56.096;12.664;2023-05-25T01:02:11;101556.47;;;12.59;100.00
13732;BME280;6937;56.096;12.664;2023-05-25T01:04:44;101564.53;;;12.59;100.00
13732;BME280;6937;56.096;12.664;2023-05-25T01:07:10;101572.00;;;12.54;100.00
13732;BME280;6937;56.096;12.664;2023-05-25T01:09:40;101567.72;;;12.51;100.00
13732;BME280;6937;56.096;12.664;2023-05-25T01:12:09;101575.88;;;12.50;100.00
13732;BME280;6937;56.096;12.664;2023-05-25T01:14:38;101583.16;;;12.48;100.00
13732;BME280;6937;56.096;12.664;2023-05-25T01:17:05;101592.16;;;12.47;100.00
13732;BME280;6937;56.096;12.664;2023-05-25T01:19:31;101593.13;;;12.46;100.00
13732;BME280;6937;56.096;12.664;2023-05-25T01:22:08;101580.50;;;12.48;100.00
13732;BME280;6937;56.096;12.664;2023-05-25T01:24:43;101575.00;;;12.49;100.00
13732;BME280;6937;56.096;12.664;2023-05-25T01:27:15;101580.50;;;12.48;100.00
13732;BME280;6937;56.096;12.664;2023-05-25T01:29:46;101573.59;;;12.44;100.00
13732;BME280;6937;56.096;12.664;2023-05-25T01:32:13;101567.25;;;12.45;100.00
13732;BME280;6937;56.096;12.664;2023-05-25T01:34:42;101574.47;;;12.44;100.00
13732;BME280;6937;56.096;12.664;2023-05-25T01:37:08;101575.50;;;12.42;100.00
13732;BME280;6937;56.096;12.664;2023-05-25T01:39:33;101571.53;;;12.35;100.00
13732;BME280;6937;56.096;12.664;2023-05-25T01:41:58;101579.78;;;12.32;100.00
13732;BME280;6937;56.096;12.664;2023-05-25T01:44:24;101575.16;;;12.34;100.00
13732;BME280;6937;56.096;12.664;2023-05-25T01:46:57;101558.13;;;12.35;100.00
13732;BME280;6937;56.096;12.664;2023-05-25T01:52:25;101553.94;;;12.31;100.00
13732;BME280;6937;56.096;12.664;2023-05-25T01:54:53;101552.41;;;12.27;100.00
13732;BME280;6937;56.096;12.664;2023-05-25T01:57:21;101564.28;;;12.23;100.00
13732;BME280;6937;56.096;12.664;2023-05-25T01:59:48;101573.31;;;12.22;100.00
13732;BME280;6937;56.096;12.664;2023-05-25T02:02:19;101575.13;;;12.21;100.00
13732;BME280;6937;56.096;12.664;2023-05-25T02:04:45;101581.16;;;12.25;100.00
13732;BME280;6937;56.096;12.664;2023-05-25T02:07:11;101578.69;;;12.22;100.00
13732;BME280;6937;56.096;12.664;2023-05-25T02:09:36;101576.75;;;12.24;100.00
13732;BME280;6937;56.096;12.664;2023-05-25T02:12:02;101573.19;;;12.23;100.00
13732;BME280;6937;56.096;12.664;2023-05-25T02:14:28;101564.28;;;12.23;100.00
13732;BME280;6937;56.096;12.664;2023-05-25T02:16:53;101574.28;;;12.21;100.00
13732;BME280;6937;56.096;12.664;2023-05-25T02:19:19;101581.75;;;12.16;100.00
13732;BME280;6937;56.096;12.664;2023-05-25T02:21:44;101584.63;;;12.13;100.00
13732;BME280;6937;56.096;12.664;2023-05-25T02:24:10;101583.78;;;12.12;100.00
13732;BME280;6937;56.096;12.664;2023-05-25T02:26:36;101580.22;;;12.11;100.00
13732;BME280;6937;56.096;12.664;2023-05-25T02:29:02;101579.94;;;12.16;100.00
13732;BME280;6937;56.096;12.664;2023-05-25T02:31:28;101571.81;;;12.18;100.00
13732;BME280;6937;56.096;12.664;2023-05-25T02:33:54;101561.94;;;12.18;100.00
13732;BME280;6937;56.096;12.664;2023-05-25T02:36:20;101563.75;;;12.18;100.00
13732;BME280;6937;56.096;12.664;2023-05-25T02:38:45;101570.81;;;12.19;100.00
13732;BME280;6937;56.096;12.664;2023-05-25T02:41:14;101568.47;;;12.14;100.00
13732;BME280;6937;56.096;12.664;2023-05-25T02:43:40;101562.34;;;12.12;100.00
13732;BME280;6937;56.096;12.664;2023-05-25T02:46:05;101565.00;;;12.12;100.00
13732;BME280;6937;56.096;12.664;2023-05-25T02:48:31;101566.75;;;12.13;100.00
13732;BME280;6937;56.096;12.664;2023-05-25T02:50:56;101567.69;;;12.12;100.00
13732;BME280;6937;56.096;12.664;2023-05-25T02:53:21;101578.53;;;12.10;100.00
13732;BME280;6937;56.096;12.664;2023-05-25T02:55:47;101572.97;;;12.14;100.00
13732;BME280;6937;56.096;12.664;2023-05-25T02:58:12;101584.44;;;12.16;100.00
13732;BME280;6937;56.096;12.664;2023-05-25T03:00:37;101565.78;;;12.14;100.00
13732;BME280;6937;56.096;12.664;2023-05-25T03:03:03;101573.91;;;12.13;100.00
13732;BME280;6937;56.096;12.664;2023-05-25T03:05:29;101575.84;;;12.10;100.00
13732;BME280;6937;56.096;12.664;2023-05-25T03:07:54;101576.69;;;12.11;100.00
13732;BME280;6937;56.096;12.664;2023-05-25T03:10:20;101570.66;;;12.07;100.00
13732;BME280;6937;56.096;12.664;2023-05-25T03:12:45;101584.72;;;12.11;100.00
13732;BME280;6937;56.096;12.664;2023-05-25T03:15:11;101573.91;;;12.13;100.00
13732;BME280;6937;56.096;12.664;2023-05-25T03:17:38;101572.19;;;12.11;100.00
13732;BME280;6937;56.096;12.664;2023-05-25T03:20:03;101568.00;;;12.07;100.00
13732;BME280;6937;56.096;12.664;2023-05-25T03:22:29;101563.28;;;12.11;100.00
13732;BME280;6937;56.096;12.664;2023-05-25T03:24:55;101571.25;;;12.13;100.00
13732;BME280;6937;56.096;12.664;2023-05-25T03:27:21;101579.28;;;12.13;100.00
13732;BME280;6937;56.096;12.664;2023-05-25T03:29:48;101570.16;;;12.15;100.00
13732;BME280;6937;56.096;12.664;2023-05-25T03:32:14;101579.19;;;12.14;100.00
13732;BME280;6937;56.096;12.664;2023-05-25T03:34:39;101586.38;;;12.14;100.00
13732;BME280;6937;56.096;12.664;2023-05-25T03:37:05;101588.19;;;12.13;100.00
13732;BME280;6937;56.096;12.664;2023-05-25T03:39:30;101595.44;;;12.11;100.00
13732;BME280;6937;56.096;12.664;2023-05-25T03:41:56;101582.16;;;12.09;100.00
13732;BME280;6937;56.096;12.664;2023-05-25T03:44:22;101582.03;;;12.11;100.00
13732;BME280;6937;56.096;12.664;2023-05-25T03:46:48;101580.44;;;12.08;100.00
13732;BME280;6937;56.096;12.664;2023-05-25T03:49:13;101581.09;;;12.12;100.00
13732;BME280;6937;56.096;12.664;2023-05-25T03:51:40;101574.69;;;12.15;100.00
13732;BME280;6937;56.096;12.664;2023-05-25T03:54:05;101583.69;;;12.14;100.00
13732;BME280;6937;56.096;12.664;2023-05-25T03:56:30;101582.16;;;12.09;100.00
13732;BME280;6937;56.096;12.664;2023-05-25T03:58:56;101578.63;;;12.09;100.00
13732;BME280;6937;56.096;12.664;2023-05-25T04:01:21;101581.59;;;12.04;100.00
13732;BME280;6937;56.096;12.664;2023-05-25T04:03:50;101580.66;;;12.05;100.00
13732;BME280;6937;56.096;12.664;2023-05-25T04:06:17;101585.91;;;12.07;100.00
13732;BME280;6937;56.096;12.664;2023-05-25T04:08:44;101586.75;;;12.07;100.00
13732;BME280;6937;56.096;12.664;2023-05-25T04:11:10;101576.91;;;12.08;100.00
13732;BME280;6937;56.096;12.664;2023-05-25T04:13:35;101581.88;;;12.14;100.00
13732;BME280;6937;56.096;12.664;2023-05-25T04:16:01;101585.94;;;12.20;100.00
13732;BME280;6937;56.096;12.664;2023-05-25T04:18:26;101588.34;;;12.24;100.00
13732;BME280;6937;56.096;12.664;2023-05-25T04:20:52;101590.94;;;12.26;100.00
13732;BME280;6937;56.096;12.664;2023-05-25T04:23:19;101585.34;;;12.29;100.00
13732;BME280;6937;56.096;12.664;2023-05-25T04:25:45;101578.06;;;12.31;100.00
13732;BME280;6937;56.096;12.664;2023-05-25T04:28:11;101585.22;;;12.30;100.00
13732;BME280;6937;56.096;12.664;2023-05-25T04:30:37;101587.03;;;12.30;100.00
13732;BME280;6937;56.096;12.664;2023-05-25T04:33:03;101586.31;;;12.28;100.00
13732;BME280;6937;56.096;12.664;2023-05-25T04:35:29;101596.38;;;12.24;100.00
13732;BME280;6937;56.096;12.664;2023-05-25T04:37:55;101589.28;;;12.23;100.00
13732;BME280;6937;56.096;12.664;2023-05-25T04:40:21;101585.56;;;12.26;100.00
13732;BME280;6937;56.096;12.664;2023-05-25T04:42:46;101584.19;;;12.33;100.00
13732;BME280;6937;56.096;12.664;2023-05-25T04:45:12;101583.84;;;12.37;100.00
13732;BME280;6937;56.096;12.664;2023-05-25T04:47:42;101572.75;;;12.43;100.00
13732;BME280;6937;56.096;12.664;2023-05-25T04:50:08;101566.44;;;12.44;100.00
13732;BME280;6937;56.096;12.664;2023-05-25T04:52:34;101566.22;;;12.47;100.00
13732;BME280;6937;56.096;12.664;2023-05-25T04:55:00;101560.34;;;12.55;100.00
13732;BME280;6937;56.096;12.664;2023-05-25T04:57:27;101559.16;;;12.59;100.00
13732;BME280;6937;56.096;12.664;2023-05-25T04:59:53;101555.19;;;12.65;100.00
13732;BME280;6937;56.096;12.664;2023-05-25T05:02:19;101552.84;;;12.73;100.00
13732;BME280;6937;56.096;12.664;2023-05-25T05:04:44;101555.31;;;12.76;100.00
13732;BME280;6937;56.096;12.664;2023-05-25T05:07:10;101544.50;;;12.77;100.00
13732;BME280;6937;56.096;12.664;2023-05-25T05:09:36;101550.06;;;12.74;100.00
13732;BME280;6937;56.096;12.664;2023-05-25T05:12:01;101547.25;;;12.76;100.00
13732;BME280;6937;56.096;12.664;2023-05-25T05:14:27;101553.72;;;12.73;100.00
13732;BME280;6937;56.096;12.664;2023-05-25T05:16:52;101549.53;;;12.69;100.00
13732;BME280;6937;56.096;12.664;2023-05-25T05:19:18;101553.06;;;12.70;100.00
13732;BME280;6937;56.096;12.664;2023-05-25T05:21:43;101570.75;;;12.72;100.00
13732;BME280;6937;56.096;12.664;2023-05-25T05:24:08;101569.59;;;12.76;100.00
13732;BME280;6937;56.096;12.664;2023-05-25T05:26:34;101585.25;;;12.82;100.00
13732;BME280;6937;56.096;12.664;2023-05-25T05:28:59;101584.53;;;12.93;100.00
13732;BME280;6937;56.096;12.664;2023-05-25T05:31:25;101576.91;;;12.99;100.00
13732;BME280;6937;56.096;12.664;2023-05-25T05:33:51;101569.97;;;13.10;100.00
13732;BME280;6937;56.096;12.664;2023-05-25T05:36:17;101583.47;;;13.08;100.00
13732;BME280;6937;56.096;12.664;2023-05-25T05:38:42;101589.06;;;13.18;100.00
13732;BME280;6937;56.096;12.664;2023-05-25T05:41:10;101594.22;;;13.21;100.00
13732;BME280;6937;56.096;12.664;2023-05-25T05:43:39;101584.59;;;13.31;100.00
13732;BME280;6937;56.096;12.664;2023-05-25T05:46:07;101594.22;;;13.33;100.00
13732;BME280;6937;56.096;12.664;2023-05-25T05:48:32;101596.38;;;13.41;100.00
13732;BME280;6937;56.096;12.664;2023-05-25T05:50:57;101603.91;;;13.48;100.00
13732;BME280;6937;56.096;12.664;2023-05-25T05:53:23;101609.13;;;13.50;100.00
13732;BME280;6937;56.096;12.664;2023-05-25T05:55:48;101605.41;;;13.52;100.00
13732;BME280;6937;56.096;12.664;2023-05-25T05:58:17;101608.59;;;13.57;100.00
13732;BME280;6937;56.096;12.664;2023-05-25T06:00:43;101606.78;;;13.58;100.00
13732;BME280;6937;56.096;12.664;2023-05-25T06:03:08;101623.66;;;13.60;100.00
13732;BME280;6937;56.096;12.664;2023-05-25T06:05:33;101609.03;;;13.64;100.00
13732;BME280;6937;56.096;12.664;2023-05-25T06:07:59;101623.19;;;13.66;100.00
13732;BME280;6937;56.096;12.664;2023-05-25T06:10:25;101618.47;;;13.70;100.00
13732;BME280;6937;56.096;12.664;2023-05-25T06:12:51;101612.66;;;13.76;100.00
13732;BME280;6937;56.096;12.664;2023-05-25T06:15:16;101622.88;;;13.83;100.00
13732;BME280;6937;56.096;12.664;2023-05-25T06:17:42;101622.75;;;13.85;100.00
13732;BME280;6937;56.096;12.664;2023-05-25T06:20:08;101629.72;;;13.87;100.00
13732;BME280;6937;56.096;12.664;2023-05-25T06:22:34;101638.84;;;13.85;100.00
13732;BME280;6937;56.096;12.664;2023-05-25T06:24:59;101648.00;;;13.82;100.00
13732;BME280;6937;56.096;12.664;2023-05-25T06:27:25;101653.88;;;13.87;100.00
13732;BME280;6937;56.096;12.664;2023-05-25T06:29:50;101650.03;;;13.91;100.00
13732;BME280;6937;56.096;12.664;2023-05-25T06:32:16;101647.88;;;13.96;100.00
13732;BME280;6937;56.096;12.664;2023-05-25T06:34:41;101657.75;;;14.09;100.00
13732;BME280;6937;56.096;12.664;2023-05-25T06:37:07;101647.56;;;14.25;100.00
13732;BME280;6937;56.096;12.664;2023-05-25T06:39:32;101653.47;;;14.30;100.00
13732;BME280;6937;56.096;12.664;2023-05-25T06:41:57;101658.31;;;14.25;100.00
13732;BME280;6937;56.096;12.664;2023-05-25T06:44:23;101657.25;;;14.27;100.00
13732;BME280;6937;56.096;12.664;2023-05-25T06:46:48;101648.41;;;14.38;100.00
13732;BME280;6937;56.096;12.664;2023-05-25T06:49:13;101657.75;;;14.45;100.00
13732;BME280;6937;56.096;12.664;2023-05-25T06:51:39;101655.91;;;14.45;100.00
13732;BME280;6937;56.096;12.664;2023-05-25T06:54:04;101658.03;;;14.53;100.00
13732;BME280;6937;56.096;12.664;2023-05-25T06:56:32;101664.09;;;14.44;100.00
13732;BME280;6937;56.096;12.664;2023-05-25T06:58:57;101687.03;;;14.37;100.00
13732;BME280;6937;56.096;12.664;2023-05-25T07:01:22;101707.50;;;14.39;100.00
13732;BME280;6937;56.096;12.664;2023-05-25T07:03:48;101709.72;;;14.45;100.00
13732;BME280;6937;56.096;12.664;2023-05-25T07:06:13;101721.50;;;14.56;100.00
13732;BME280;6937;56.096;12.664;2023-05-25T07:08:41;101737.72;;;14.67;100.00
13732;BME280;6937;56.096;12.664;2023-05-25T07:11:06;101739.84;;;14.74;100.00
13732;BME280;6937;56.096;12.664;2023-05-25T07:13:34;101751.69;;;14.72;100.00
13732;BME280;6937;56.096;12.664;2023-05-25T07:16:00;101758.28;;;14.68;100.00
13732;BME280;6937;56.096;12.664;2023-05-25T07:18:25;101766.75;;;14.74;100.00
13732;BME280;6937;56.096;12.664;2023-05-25T07:20:50;101771.06;;;14.77;100.00
13732;BME280;6937;56.096;12.664;2023-05-25T07:23:16;101776.09;;;14.81;100.00
13732;BME280;6937;56.096;12.664;2023-05-25T07:25:41;101782.47;;;14.80;100.00
13732;BME280;6937;56.096;12.664;2023-05-25T07:28:07;101782.97;;;14.85;100.00
13732;BME280;6937;56.096;12.664;2023-05-25T07:30:33;101797.41;;;14.84;100.00
13732;BME280;6937;56.096;12.664;2023-05-25T07:32:58;101809.31;;;14.93;100.00
13732;BME280;6937;56.096;12.664;2023-05-25T07:35:24;101817.94;;;14.98;100.00
13732;BME280;6937;56.096;12.664;2023-05-25T07:37:59;101819.03;;;14.95;100.00
13732;BME280;6937;56.096;12.664;2023-05-25T07:40:25;101827.84;;;14.97;100.00
13732;BME280;6937;56.096;12.664;2023-05-25T07:42:52;101823.59;;;15.06;100.00
13732;BME280;6937;56.096;12.664;2023-05-25T07:45:17;101845.16;;;15.06;100.00
13732;BME280;6937;56.096;12.664;2023-05-25T07:47:43;101863.38;;;15.03;100.00
13732;BME280;6937;56.096;12.664;2023-05-25T07:50:08;101868.13;;;14.99;100.00
13732;BME280;6937;56.096;12.664;2023-05-25T07:52:34;101863.69;;;14.98;100.00
13732;BME280;6937;56.096;12.664;2023-05-25T07:55:00;101879.63;;;15.01;100.00
13732;BME280;6937;56.096;12.664;2023-05-25T07:57:25;101883.72;;;15.07;100.00
13732;BME280;6937;56.096;12.664;2023-05-25T07:59:51;101885.97;;;15.00;100.00
13732;BME280;6937;56.096;12.664;2023-05-25T08:02:16;101897.28;;;15.05;100.00
13732;BME280;6937;56.096;12.664;2023-05-25T08:04:42;101897.81;;;15.10;100.00
13732;BME280;6937;56.096;12.664;2023-05-25T08:07:07;101899.19;;;15.16;100.00
13732;BME280;6937;56.096;12.664;2023-05-25T08:09:32;101909.13;;;15.03;100.00
13732;BME280;6937;56.096;12.664;2023-05-25T08:11:58;101919.69;;;15.06;100.00
13732;BME280;6937;56.096;12.664;2023-05-25T08:14:24;101921.41;;;15.07;100.00
13732;BME280;6937;56.096;12.664;2023-05-25T08:16:50;101921.59;;;15.04;100.00
13732;BME280;6937;56.096;12.664;2023-05-25T08:19:15;101930.44;;;15.06;100.00
13732;BME280;6937;56.096;12.664;2023-05-25T08:21:41;101934.00;;;15.06;100.00
13732;BME280;6937;56.096;12.664;2023-05-25T08:24:06;101954.34;;;15.10;100.00
13732;BME280;6937;56.096;12.664;2023-05-25T08:26:33;101938.84;;;15.14;100.00
13732;BME280;6937;56.096;12.664;2023-05-25T08:29:03;101942.16;;;15.17;100.00
13732;BME280;6937;56.096;12.664;2023-05-25T08:31:30;101941.06;;;15.20;100.00
13732;BME280;6937;56.096;12.664;2023-05-25T08:33:56;101957.78;;;15.12;100.00
13732;BME280;6937;56.096;12.664;2023-05-25T08:36:21;101973.31;;;15.09;100.00
13732;BME280;6937;56.096;12.664;2023-05-25T08:38:47;101963.56;;;15.19;100.00
13732;BME280;6937;56.096;12.664;2023-05-25T08:41:12;101951.53;;;15.12;100.00
13732;BME280;6937;56.096;12.664;2023-05-25T08:43:40;101971.56;;;15.08;100.00
13732;BME280;6937;56.096;12.664;2023-05-25T08:46:06;101969.75;;;15.08;100.00
13732;BME280;6937;56.096;12.664;2023-05-25T08:48:33;101968.78;;;15.09;100.00
13732;BME280;6937;56.096;12.664;2023-05-25T08:51:09;101967.38;;;15.16;100.00
13732;BME280;6937;56.096;12.664;2023-05-25T08:53:39;101977.03;;;15.19;100.00
13732;BME280;6937;56.096;12.664;2023-05-25T08:56:21;101979.66;;;15.20;100.00
13732;BME280;6937;56.096;12.664;2023-05-25T08:59:14;101982.00;;;15.25;100.00
13732;BME280;6937;56.096;12.664;2023-05-25T09:01:45;101982.41;;;15.44;100.00
13732;BME280;6937;56.096;12.664;2023-05-25T09:04:12;101990.69;;;15.54;100.00
13732;BME280;6937;56.096;12.664;2023-05-25T09:06:44;101988.38;;;15.60;100.00
13732;BME280;6937;56.096;12.664;2023-05-25T09:09:10;102000.50;;;15.42;100.00
13732;BME280;6937;56.096;12.664;2023-05-25T09:11:36;102009.25;;;15.33;100.00
13732;BME280;6937;56.096;12.664;2023-05-25T09:14:04;102021.00;;;15.32;100.00
13732;BME280;6937;56.096;12.664;2023-05-25T09:16:30;102020.78;;;15.35;100.00
13732;BME280;6937;56.096;12.664;2023-05-25T09:18:57;102019.69;;;15.37;100.00
13732;BME280;6937;56.096;12.664;2023-05-25T09:21:24;102013.09;;;15.54;100.00
13732;BME280;6937;56.096;12.664;2023-05-25T09:23:50;102028.75;;;15.49;100.00
13732;BME280;6937;56.096;12.664;2023-05-25T09:26:15;102035.97;;;15.36;100.00
13732;BME280;6937;56.096;12.664;2023-05-25T09:28:44;102035.75;;;15.39;100.00
13732;BME280;6937;56.096;12.664;2023-05-25T09:31:14;102037.97;;;15.45;100.00
13732;BME280;6937;56.096;12.664;2023-05-25T09:33:40;102054.91;;;15.47;100.00
13732;BME280;6937;56.096;12.664;2023-05-25T09:36:06;102057.06;;;15.42;100.00
13732;BME280;6937;56.096;12.664;2023-05-25T09:38:31;102050.50;;;15.46;100.00
13732;BME280;6937;56.096;12.664;2023-05-25T09:40:57;102066.25;;;15.39;100.00
13732;BME280;6937;56.096;12.664;2023-05-25T09:43:23;102070.22;;;15.34;100.00
13732;BME280;6937;56.096;12.664;2023-05-25T09:45:51;102074.88;;;15.32;100.00
13732;BME280;6937;56.096;12.664;2023-05-25T09:48:16;102080.91;;;15.35;100.00
13732;BME280;6937;56.096;12.664;2023-05-25T09:50:42;102074.00;;;15.19;100.00
13732;BME280;6937;56.096;12.664;2023-05-25T09:53:08;102070.91;;;15.25;100.00
13732;BME280;6937;56.096;12.664;2023-05-25T09:55:35;102087.47;;;15.31;100.00
13732;BME280;6937;56.096;12.664;2023-05-25T09:58:01;102096.44;;;15.44;100.00
13732;BME280;6937;56.096;12.664;2023-05-25T10:00:26;102112.03;;;15.27;100.00
13732;BME280;6937;56.096;12.664;2023-05-25T10:02:52;102099.56;;;15.26;100.00
13732;BME280;6937;56.096;12.664;2023-05-25T10:05:17;102104.19;;;15.36;100.00
13732;BME280;6937;56.096;12.664;2023-05-25T10:07:44;102102.13;;;15.40;100.00
13732;BME280;6937;56.096;12.664;2023-05-25T10:10:12;102107.53;;;15.40;100.00
13732;BME280;6937;56.096;12.664;2023-05-25T10:12:40;102108.03;;;15.45;100.00
13732;BME280;6937;56.096;12.664;2023-05-25T10:15:07;102116.34;;;15.42;100.00
13732;BME280;6937;56.096;12.664;2023-05-25T10:17:34;102122.06;;;15.37;100.00
13732;BME280;6937;56.096;12.664;2023-05-25T10:20:04;102120.44;;;15.22;100.00
13732;BME280;6937;56.096;12.664;2023-05-25T10:22:51;102144.78;;;15.08;100.00
13732;BME280;6937;56.096;12.664;2023-05-25T10:25:25;102160.28;;;15.05;100.00
13732;BME280;6937;56.096;12.664;2023-05-25T10:28:13;102148.97;;;14.87;100.00
13732;BME280;6937;56.096;12.664;2023-05-25T10:30:41;102158.00;;;14.86;100.00
13732;BME280;6937;56.096;12.664;2023-05-25T10:33:07;102164.91;;;14.90;100.00
13732;BME280;6937;56.096;12.664;2023-05-25T10:35:34;102160.94;;;14.95;100.00
13732;BME280;6937;56.096;12.664;2023-05-25T10:38:03;102164.25;;;14.86;100.00
13732;BME280;6937;56.096;12.664;2023-05-25T10:40:28;102166.84;;;14.88;100.00
13732;BME280;6937;56.096;12.664;2023-05-25T10:42:54;102175.28;;;15.09;100.00
13732;BME280;6937;56.096;12.664;2023-05-25T10:45:20;102169.59;;;15.26;100.00
13732;BME280;6937;56.096;12.664;2023-05-25T10:47:46;102175.09;;;15.37;100.00
13732;BME280;6937;56.096;12.664;2023-05-25T10:52:45;102177.69;;;15.26;100.00
13732;BME280;6937;56.096;12.664;2023-05-25T10:55:10;102176.44;;;15.05;100.00
13732;BME280;6937;56.096;12.664;2023-05-25T10:57:36;102186.13;;;15.07;100.00
13732;BME280;6937;56.096;12.664;2023-05-25T11:00:05;102167.94;;;14.98;100.00
13732;BME280;6937;56.096;12.664;2023-05-25T11:02:51;102166.44;;;15.07;100.00
13732;BME280;6937;56.096;12.664;2023-05-25T11:07:55;102173.66;;;15.19;100.00
13732;BME280;6937;56.096;12.664;2023-05-25T11:10:44;102175.41;;;15.20;100.00
13732;BME280;6937;56.096;12.664;2023-05-25T11:18:36;102154.63;;;15.22;100.00
13732;BME280;6937;56.096;12.664;2023-05-25T11:21:24;102145.31;;;15.00;100.00
13732;BME280;6937;56.096;12.664;2023-05-25T11:24:11;102146.09;;;15.28;100.00
13732;BME280;6937;56.096;12.664;2023-05-25T11:26:51;102149.34;;;15.33;100.00
13732;BME280;6937;56.096;12.664;2023-05-25T11:29:19;102160.97;;;15.21;100.00
13732;BME280;6937;56.096;12.664;2023-05-25T11:31:53;102162.25;;;15.15;100.00
13732;BME280;6937;56.096;12.664;2023-05-25T11:34:23;102165.38;;;15.09;100.00
13732;BME280;6937;56.096;12.664;2023-05-25T11:36:53;102160.94;;;15.08;100.00
13732;BME280;6937;56.096;12.664;2023-05-25T11:39:20;102158.56;;;15.04;100.00
13732;BME280;6937;56.096;12.664;2023-05-25T11:41:50;102156.22;;;14.99;100.00
13732;BME280;6937;56.096;12.664;2023-05-25T11:44:24;102158.81;;;15.13;100.00
13732;BME280;6937;56.096;12.664;2023-05-25T11:46:52;102167.00;;;15.24;100.00
13732;BME280;6937;56.096;12.664;2023-05-25T11:49:21;102161.63;;;15.24;100.00
13732;BME280;6937;56.096;12.664;2023-05-25T11:51:46;102176.06;;;15.11;100.00
13732;BME280;6937;56.096;12.664;2023-05-25T11:54:23;102174.72;;;15.04;100.00
13732;BME280;6937;56.096;12.664;2023-05-25T11:56:49;102174.09;;;15.13;100.00
13732;BME280;6937;56.096;12.664;2023-05-25T11:59:14;102178.88;;;15.22;100.00
13732;BME280;6937;56.096;12.664;2023-05-25T12:01:41;102185.22;;;15.21;100.00
13732;BME280;6937;56.096;12.664;2023-05-25T12:04:08;102175.50;;;15.31;100.00
13732;BME280;6937;56.096;12.664;2023-05-25T12:06:34;102182.09;;;15.39;100.00
13732;BME280;6937;56.096;12.664;2023-05-25T12:09:01;102172.41;;;15.50;100.00
13732;BME280;6937;56.096;12.664;2023-05-25T12:11:32;102152.56;;;15.38;100.00
13732;BME280;6937;56.096;12.664;2023-05-25T12:13:59;102169.81;;;15.35;100.00
13732;BME280;6937;56.096;12.664;2023-05-25T12:16:25;102164.75;;;15.18;100.00
13732;BME280;6937;56.096;12.664;2023-05-25T12:18:52;102162.38;;;15.14;100.00
13732;BME280;6937;56.096;12.664;2023-05-25T12:21:19;102146.53;;;15.34;100.00
13732;BME280;6937;56.096;12.664;2023-05-25T12:23:46;102149.03;;;15.63;100.00
13732;BME280;6937;56.096;12.664;2023-05-25T12:26:12;102149.03;;;15.50;100.00
13732;BME280;6937;56.096;12.664;2023-05-25T12:28:39;102142.56;;;15.40;100.00
13732;BME280;6937;56.096;12.664;2023-05-25T12:31:27;102131.13;;;15.24;100.00
13732;BME280;6937;56.096;12.664;2023-05-25T12:34:10;102135.56;;;15.50;100.00
13732;BME280;6937;56.096;12.664;2023-05-25T12:36:53;102133.94;;;15.47;100.00
13732;BME280;6937;56.096;12.664;2023-05-25T12:41:54;102143.97;;;15.33;100.00
13732;BME280;6937;56.096;12.664;2023-05-25T12:44:21;102146.97;;;15.28;100.00
13732;BME280;6937;56.096;12.664;2023-05-25T12:46:48;102134.47;;;15.40;100.00
13732;BME280;6937;56.096;12.664;2023-05-25T12:49:23;102132.84;;;15.25;100.00
13732;BME280;6937;56.096;12.664;2023-05-25T12:51:49;102123.28;;;15.59;100.00
13732;BME280;6937;56.096;12.664;2023-05-25T12:54:15;102127.53;;;15.48;100.00
13732;BME280;6937;56.096;12.664;2023-05-25T12:56:55;102115.47;;;15.41;100.00